sensor_id;sensor_type;location;lat;lon;timestamp;pressure;altitude;pressure_sealevel;temperature;humidity
13934;BME280;7039;52.168;9.866;2022-07-12T00:01:22;101435.88;;;14.60;99.53
13934;BME280;7039;52.168;9.866;2022-07-12T00:03:48;101431.84;;;14.53;99.97
13934;BME280;7039;52.168;9.866;2022-07-12T00:06:16;101434.19;;;14.59;100.00
13934;BME280;7039;52.168;9.866;2022-07-12T00:08:43;101432.16;;;14.47;99.88
13934;BME280;7039;52.168;9.866;2022-07-12T00:11:09;101434.31;;;14.38;99.99
13934;BME280;7039;52.168;9.866;2022-07-12T00:13:36;101435.41;;;14.34;100.00
13934;BME280;7039;52.168;9.866;2022-07-12T00:16:03;101442.03;;;14.41;100.00
13934;BME280;7039;52.168;9.866;2022-07-12T00:18:30;101445.13;;;14.32;100.00
13934;BME280;7039;52.168;9.866;2022-07-12T00:20:56;101443.44;;;14.31;100.00
13934;BME280;7039;52.168;9.866;2022-07-12T00:23:24;101443.75;;;14.43;100.00
13934;BME280;7039;52.168;9.866;2022-07-12T00:25:51;101445.59;;;14.40;100.00
13934;BME280;7039;52.168;9.866;2022-07-12T00:28:18;101448.16;;;14.42;100.00
13934;BME280;7039;52.168;9.866;2022-07-12T00:30:44;101440.88;;;14.47;100.00
13934;BME280;7039;52.168;9.866;2022-07-12T00:33:11;101450.22;;;14.53;99.48
13934;BME280;7039;52.168;9.866;2022-07-12T00:35:37;101442.06;;;14.59;99.24
13934;BME280;7039;52.168;9.866;2022-07-12T00:38:04;101450.47;;;14.66;98.75
13934;BME280;7039;52.168;9.866;2022-07-12T00:40:32;101448.44;;;14.71;98.55
13934;BME280;7039;52.168;9.866;2022-07-12T00:42:59;101446.84;;;14.68;98.57
13934;BME280;7039;52.168;9.866;2022-07-12T00:45:25;101456.19;;;14.74;98.45
13934;BME280;7039;52.168;9.866;2022-07-12T00:47:52;101449.94;;;14.76;98.16
13934;BME280;7039;52.168;9.866;2022-07-12T00:50:21;101456.78;;;14.79;98.18
13934;BME280;7039;52.168;9.866;2022-07-12T00:52:49;101455.06;;;14.78;98.22
13934;BME280;7039;52.168;9.866;2022-07-12T00:55:17;101455.78;;;14.81;98.48
13934;BME280;7039;52.168;9.866;2022-07-12T00:57:46;101452.09;;;14.68;98.79
13934;BME280;7039;52.168;9.866;2022-07-12T01:00:16;101453.78;;;14.69;98.18
13934;BME280;7039;52.168;9.866;2022-07-12T01:02:43;101449.63;;;14.65;98.54
13934;BME280;7039;52.168;9.866;2022-07-12T01:05:11;101443.69;;;14.61;98.85
13934;BME280;7039;52.168;9.866;2022-07-12T01:07:38;101441.06;;;14.61;99.30
13934;BME280;7039;52.168;9.866;2022-07-12T01:10:07;101439.81;;;14.69;98.46
13934;BME280;7039;52.168;9.866;2022-07-12T01:12:34;101438.97;;;14.68;97.96
13934;BME280;7039;52.168;9.866;2022-07-12T01:15:04;101449.16;;;14.74;98.20
13934;BME280;7039;52.168;9.866;2022-07-12T01:17:31;101438.78;;;14.71;98.24
13934;BME280;7039;52.168;9.866;2022-07-12T01:19:59;101436.63;;;14.79;98.13
13934;BME280;7039;52.168;9.866;2022-07-12T01:22:27;101433.00;;;14.82;98.48
13934;BME280;7039;52.168;9.866;2022-07-12T01:24:58;101428.44;;;14.86;97.94
13934;BME280;7039;52.168;9.866;2022-07-12T01:27:25;101426.72;;;14.85;97.57
13934;BME280;7039;52.168;9.866;2022-07-12T01:29:52;101436.56;;;14.81;98.08
13934;BME280;7039;52.168;9.866;2022-07-12T01:32:19;101435.69;;;14.80;97.98
13934;BME280;7039;52.168;9.866;2022-07-12T01:34:53;101429.28;;;14.86;97.89
13934;BME280;7039;52.168;9.866;2022-07-12T01:37:21;101435.22;;;14.90;97.61
13934;BME280;7039;52.168;9.866;2022-07-12T01:39:50;101434.28;;;14.91;97.93
13934;BME280;7039;52.168;9.866;2022-07-12T01:42:18;101429.03;;;14.91;98.20
13934;BME280;7039;52.168;9.866;2022-07-12T01:44:45;101434.53;;;14.86;98.00
13934;BME280;7039;52.168;9.866;2022-07-12T01:47:12;101435.53;;;14.83;97.84
13934;BME280;7039;52.168;9.866;2022-07-12T01:49:38;101433.06;;;14.80;98.29
13934;BME280;7039;52.168;9.866;2022-07-12T01:52:05;101432.81;;;14.85;98.22
13934;BME280;7039;52.168;9.866;2022-07-12T01:54:33;101430.44;;;14.80;98.08
13934;BME280;7039;52.168;9.866;2022-07-12T01:57:01;101423.75;;;14.75;98.11
13934;BME280;7039;52.168;9.866;2022-07-12T01:59:29;101422.13;;;14.72;98.75
13934;BME280;7039;52.168;9.866;2022-07-12T02:01:56;101423.81;;;14.73;98.66
13934;BME280;7039;52.168;9.866;2022-07-12T02:04:23;101417.53;;;14.76;98.30
13934;BME280;7039;52.168;9.866;2022-07-12T02:06:50;101410.53;;;14.76;98.18
13934;BME280;7039;52.168;9.866;2022-07-12T02:09:17;101416.88;;;14.72;98.29
13934;BME280;7039;52.168;9.866;2022-07-12T02:11:44;101414.84;;;14.77;98.43
13934;BME280;7039;52.168;9.866;2022-07-12T02:14:12;101416.56;;;14.78;98.67
13934;BME280;7039;52.168;9.866;2022-07-12T02:16:41;101419.31;;;14.75;99.15
13934;BME280;7039;52.168;9.866;2022-07-12T02:19:08;101402.19;;;14.68;99.62
13934;BME280;7039;52.168;9.866;2022-07-12T02:21:35;101416.16;;;14.69;99.66
13934;BME280;7039;52.168;9.866;2022-07-12T02:24:03;101410.78;;;14.72;99.65
13934;BME280;7039;52.168;9.866;2022-07-12T02:26:32;101415.63;;;14.79;99.35
13934;BME280;7039;52.168;9.866;2022-07-12T02:28:59;101406.97;;;14.77;99.65
13934;BME280;7039;52.168;9.866;2022-07-12T02:31:25;101404.41;;;14.76;99.85
13934;BME280;7039;52.168;9.866;2022-07-12T02:33:53;101410.44;;;14.78;99.34
13934;BME280;7039;52.168;9.866;2022-07-12T02:36:20;101410.53;;;14.76;99.30
13934;BME280;7039;52.168;9.866;2022-07-12T02:38:47;101410.44;;;14.78;99.17
13934;BME280;7039;52.168;9.866;2022-07-12T02:41:13;101393.84;;;14.77;98.68
13934;BME280;7039;52.168;9.866;2022-07-12T02:43:40;101413.53;;;14.69;98.32
13934;BME280;7039;52.168;9.866;2022-07-12T02:46:08;101410.25;;;14.65;98.72
13934;BME280;7039;52.168;9.866;2022-07-12T02:48:36;101411.56;;;14.56;99.04
13934;BME280;7039;52.168;9.866;2022-07-12T02:51:05;101416.94;;;14.53;99.11
13934;BME280;7039;52.168;9.866;2022-07-12T02:53:32;101419.88;;;14.47;99.42
13934;BME280;7039;52.168;9.866;2022-07-12T02:55:59;101418.03;;;14.32;99.97
13934;BME280;7039;52.168;9.866;2022-07-12T02:58:26;101418.03;;;14.14;100.00
13934;BME280;7039;52.168;9.866;2022-07-12T03:00:52;101421.34;;;14.18;100.00
13934;BME280;7039;52.168;9.866;2022-07-12T03:03:19;101425.22;;;14.11;100.00
13934;BME280;7039;52.168;9.866;2022-07-12T03:05:46;101421.53;;;14.15;100.00
13934;BME280;7039;52.168;9.866;2022-07-12T03:08:14;101429.78;;;14.25;100.00
13934;BME280;7039;52.168;9.866;2022-07-12T03:10:41;101430.78;;;14.22;100.00
13934;BME280;7039;52.168;9.866;2022-07-12T03:13:07;101445.28;;;14.29;100.00
13934;BME280;7039;52.168;9.866;2022-07-12T03:15:35;101447.91;;;14.29;100.00
13934;BME280;7039;52.168;9.866;2022-07-12T03:18:01;101455.56;;;14.34;100.00
13934;BME280;7039;52.168;9.866;2022-07-12T03:20:28;101459.72;;;14.38;100.00
13934;BME280;7039;52.168;9.866;2022-07-12T03:22:55;101458.47;;;14.45;100.00
13934;BME280;7039;52.168;9.866;2022-07-12T03:25:24;101470.00;;;14.60;100.00
13934;BME280;7039;52.168;9.866;2022-07-12T03:27:50;101471.56;;;14.64;100.00
13934;BME280;7039;52.168;9.866;2022-07-12T03:30:17;101475.03;;;14.65;100.00
13934;BME280;7039;52.168;9.866;2022-07-12T03:32:44;101466.69;;;14.74;100.00
13934;BME280;7039;52.168;9.866;2022-07-12T03:35:11;101477.31;;;14.88;100.00
13934;BME280;7039;52.168;9.866;2022-07-12T03:37:42;101478.53;;;14.98;99.39
13934;BME280;7039;52.168;9.866;2022-07-12T03:40:10;101480.38;;;14.96;99.16
13934;BME280;7039;52.168;9.866;2022-07-12T03:42:38;101484.19;;;15.08;99.07
13934;BME280;7039;52.168;9.866;2022-07-12T03:45:06;101480.19;;;15.17;98.65
13934;BME280;7039;52.168;9.866;2022-07-12T03:47:33;101497.59;;;15.19;98.33
13934;BME280;7039;52.168;9.866;2022-07-12T03:50:01;101491.03;;;15.11;98.60
13934;BME280;7039;52.168;9.866;2022-07-12T03:52:31;101494.34;;;15.14;98.39
13934;BME280;7039;52.168;9.866;2022-07-12T03:54:58;101502.06;;;15.17;98.00
13934;BME280;7039;52.168;9.866;2022-07-12T03:57:25;101504.28;;;15.25;98.37
13934;BME280;7039;52.168;9.866;2022-07-12T03:59:54;101504.81;;;15.32;97.83
13934;BME280;7039;52.168;9.866;2022-07-12T04:02:21;101505.50;;;15.35;97.61
13934;BME280;7039;52.168;9.866;2022-07-12T04:04:48;101501.69;;;15.41;97.41
13934;BME280;7039;52.168;9.866;2022-07-12T04:07:15;101506.50;;;15.33;97.95
13934;BME280;7039;52.168;9.866;2022-07-12T04:09:42;101509.47;;;15.27;98.23
13934;BME280;7039;52.168;9.866;2022-07-12T04:12:09;101507.03;;;15.39;97.83
13934;BME280;7039;52.168;9.866;2022-07-12T04:14:35;101503.41;;;15.42;97.94
13934;BME280;7039;52.168;9.866;2022-07-12T04:17:04;101504.59;;;15.52;97.78
13934;BME280;7039;52.168;9.866;2022-07-12T04:19:31;101506.69;;;15.45;98.06
13934;BME280;7039;52.168;9.866;2022-07-12T04:21:58;101506.28;;;15.53;97.88
13934;BME280;7039;52.168;9.866;2022-07-12T04:24:24;101502.56;;;15.57;97.37
13934;BME280;7039;52.168;9.866;2022-07-12T04:26:51;101499.25;;;15.54;95.51
13934;BME280;7039;52.168;9.866;2022-07-12T04:29:18;101504.16;;;15.60;95.69
13934;BME280;7039;52.168;9.866;2022-07-12T04:31:45;101503.06;;;15.64;95.60
13934;BME280;7039;52.168;9.866;2022-07-12T04:34:13;101512.84;;;15.78;96.03
13934;BME280;7039;52.168;9.866;2022-07-12T04:36:42;101512.59;;;15.82;95.85
13934;BME280;7039;52.168;9.866;2022-07-12T04:39:08;101510.59;;;15.88;96.22
13934;BME280;7039;52.168;9.866;2022-07-12T04:41:35;101513.72;;;15.94;95.85
13934;BME280;7039;52.168;9.866;2022-07-12T04:44:02;101514.72;;;15.92;95.32
13934;BME280;7039;52.168;9.866;2022-07-12T04:46:29;101520.94;;;15.91;96.13
13934;BME280;7039;52.168;9.866;2022-07-12T04:48:55;101524.97;;;15.96;95.79
13934;BME280;7039;52.168;9.866;2022-07-12T04:51:23;101522.59;;;16.07;96.04
13934;BME280;7039;52.168;9.866;2022-07-12T04:53:50;101534.84;;;16.08;96.38
13934;BME280;7039;52.168;9.866;2022-07-12T04:56:17;101538.63;;;16.19;95.48
13934;BME280;7039;52.168;9.866;2022-07-12T04:58:43;101535.75;;;16.23;96.06
13934;BME280;7039;52.168;9.866;2022-07-12T05:01:10;101538.81;;;16.32;95.94
13934;BME280;7039;52.168;9.866;2022-07-12T05:03:36;101527.59;;;16.28;95.78
13934;BME280;7039;52.168;9.866;2022-07-12T05:06:03;101529.31;;;16.29;95.28
13934;BME280;7039;52.168;9.866;2022-07-12T05:08:31;101531.66;;;16.34;94.82
13934;BME280;7039;52.168;9.866;2022-07-12T05:10:57;101533.47;;;16.33;95.04
13934;BME280;7039;52.168;9.866;2022-07-12T05:13:24;101535.94;;;16.50;95.37
13934;BME280;7039;52.168;9.866;2022-07-12T05:15:51;101536.56;;;16.56;94.47
13934;BME280;7039;52.168;9.866;2022-07-12T05:18:17;101539.22;;;16.70;94.67
13934;BME280;7039;52.168;9.866;2022-07-12T05:20:44;101549.41;;;16.76;94.54
13934;BME280;7039;52.168;9.866;2022-07-12T05:23:10;101538.88;;;16.76;93.73
13934;BME280;7039;52.168;9.866;2022-07-12T05:25:38;101537.22;;;16.89;93.35
13934;BME280;7039;52.168;9.866;2022-07-12T05:28:04;101540.53;;;16.93;92.63
13934;BME280;7039;52.168;9.866;2022-07-12T05:30:31;101534.78;;;17.01;92.67
13934;BME280;7039;52.168;9.866;2022-07-12T05:32:58;101542.03;;;17.11;92.92
13934;BME280;7039;52.168;9.866;2022-07-12T05:35:25;101546.94;;;17.32;91.86
13934;BME280;7039;52.168;9.866;2022-07-12T05:37:52;101540.53;;;17.50;91.98
13934;BME280;7039;52.168;9.866;2022-07-12T05:40:18;101547.78;;;17.61;90.41
13934;BME280;7039;52.168;9.866;2022-07-12T05:42:46;101548.25;;;17.68;89.56
13934;BME280;7039;52.168;9.866;2022-07-12T05:45:13;101544.56;;;17.70;89.15
13934;BME280;7039;52.168;9.866;2022-07-12T05:47:39;101547.22;;;17.85;88.58
13934;BME280;7039;52.168;9.866;2022-07-12T05:50:07;101549.47;;;17.91;88.32
13934;BME280;7039;52.168;9.866;2022-07-12T05:52:33;101551.19;;;17.92;88.36
13934;BME280;7039;52.168;9.866;2022-07-12T05:55:18;101547.31;;;17.69;86.23
13934;BME280;7039;52.168;9.866;2022-07-12T05:57:44;101540.91;;;17.87;86.76
13934;BME280;7039;52.168;9.866;2022-07-12T06:00:13;101548.50;;;18.06;86.22
13934;BME280;7039;52.168;9.866;2022-07-12T06:02:40;101544.06;;;18.07;85.34
13934;BME280;7039;52.168;9.866;2022-07-12T06:05:07;101537.56;;;17.98;85.62
13934;BME280;7039;52.168;9.866;2022-07-12T06:07:34;101538.72;;;18.21;85.29
13934;BME280;7039;52.168;9.866;2022-07-12T06:10:01;101542.09;;;17.96;85.53
13934;BME280;7039;52.168;9.866;2022-07-12T06:12:27;101540.66;;;18.05;84.15
13934;BME280;7039;52.168;9.866;2022-07-12T06:14:54;101539.69;;;18.20;83.86
13934;BME280;7039;52.168;9.866;2022-07-12T06:17:21;101538.25;;;18.29;84.44
13934;BME280;7039;52.168;9.866;2022-07-12T06:19:49;101526.63;;;18.31;84.35
13934;BME280;7039;52.168;9.866;2022-07-12T06:22:15;101525.91;;;18.42;83.34
13934;BME280;7039;52.168;9.866;2022-07-12T06:24:42;101523.59;;;18.38;83.53
13934;BME280;7039;52.168;9.866;2022-07-12T06:27:08;101527.28;;;18.48;83.04
13934;BME280;7039;52.168;9.866;2022-07-12T06:29:35;101529.75;;;18.51;83.27
13934;BME280;7039;52.168;9.866;2022-07-12T06:32:01;101528.69;;;18.66;82.55
13934;BME280;7039;52.168;9.866;2022-07-12T06:34:29;101526.63;;;18.71;81.51
13934;BME280;7039;52.168;9.866;2022-07-12T06:36:56;101529.69;;;18.78;80.41
13934;BME280;7039;52.168;9.866;2022-07-12T06:39:22;101528.34;;;18.98;80.19
13934;BME280;7039;52.168;9.866;2022-07-12T06:41:49;101524.22;;;19.07;79.36
13934;BME280;7039;52.168;9.866;2022-07-12T06:44:18;101532.59;;;19.26;78.39
13934;BME280;7039;52.168;9.866;2022-07-12T06:46:44;101529.28;;;19.10;76.63
13934;BME280;7039;52.168;9.866;2022-07-12T06:49:11;101524.22;;;18.81;75.32
13934;BME280;7039;52.168;9.866;2022-07-12T06:51:38;101521.88;;;18.89;76.58
13934;BME280;7039;52.168;9.866;2022-07-12T06:54:05;101521.56;;;19.07;76.96
13934;BME280;7039;52.168;9.866;2022-07-12T06:56:32;101527.50;;;18.97;76.31
13934;BME280;7039;52.168;9.866;2022-07-12T06:58:58;101531.84;;;18.98;77.23
13934;BME280;7039;52.168;9.866;2022-07-12T07:01:25;101528.75;;;18.79;78.93
13934;BME280;7039;52.168;9.866;2022-07-12T07:03:52;101527.72;;;18.54;79.53
13934;BME280;7039;52.168;9.866;2022-07-12T07:06:18;101523.66;;;18.36;79.45
13934;BME280;7039;52.168;9.866;2022-07-12T07:08:46;101524.28;;;18.27;78.92
13934;BME280;7039;52.168;9.866;2022-07-12T07:11:13;101525.47;;;18.35;79.40
13934;BME280;7039;52.168;9.866;2022-07-12T07:13:39;101535.63;;;18.42;78.89
13934;BME280;7039;52.168;9.866;2022-07-12T07:16:06;101532.09;;;18.55;78.60
13934;BME280;7039;52.168;9.866;2022-07-12T07:18:33;101535.56;;;18.69;77.82
13934;BME280;7039;52.168;9.866;2022-07-12T07:20:59;101535.84;;;19.04;77.27
13934;BME280;7039;52.168;9.866;2022-07-12T07:23:26;101545.25;;;19.47;75.12
13934;BME280;7039;52.168;9.866;2022-07-12T07:25:54;101536.22;;;19.62;73.50
13934;BME280;7039;52.168;9.866;2022-07-12T07:28:21;101537.94;;;19.76;73.25
13934;BME280;7039;52.168;9.866;2022-07-12T07:30:47;101542.50;;;19.98;71.68
13934;BME280;7039;52.168;9.866;2022-07-12T07:33:19;101536.94;;;20.14;71.78
13934;BME280;7039;52.168;9.866;2022-07-12T07:35:46;101539.88;;;20.22;73.20
13934;BME280;7039;52.168;9.866;2022-07-12T07:38:13;101527.34;;;19.63;72.78
13934;BME280;7039;52.168;9.866;2022-07-12T07:40:39;101520.41;;;19.11;74.14
13934;BME280;7039;52.168;9.866;2022-07-12T07:43:07;101522.44;;;18.94;76.23
13934;BME280;7039;52.168;9.866;2022-07-12T07:45:34;101518.63;;;18.86;76.29
13934;BME280;7039;52.168;9.866;2022-07-12T07:48:00;101519.94;;;18.66;75.96
13934;BME280;7039;52.168;9.866;2022-07-12T07:50:27;101526.22;;;18.50;76.44
13934;BME280;7039;52.168;9.866;2022-07-12T07:52:55;101526.84;;;18.41;76.23
13934;BME280;7039;52.168;9.866;2022-07-12T07:55:21;101521.25;;;18.33;76.86
13934;BME280;7039;52.168;9.866;2022-07-12T07:57:48;101528.00;;;18.37;77.04
13934;BME280;7039;52.168;9.866;2022-07-12T08:00:16;101523.38;;;18.41;77.65
13934;BME280;7039;52.168;9.866;2022-07-12T08:02:43;101519.03;;;18.40;79.17
13934;BME280;7039;52.168;9.866;2022-07-12T08:05:09;101519.19;;;18.51;77.79
13934;BME280;7039;52.168;9.866;2022-07-12T08:07:36;101513.59;;;18.55;76.61
13934;BME280;7039;52.168;9.866;2022-07-12T08:10:02;101509.88;;;18.58;75.09
13934;BME280;7039;52.168;9.866;2022-07-12T08:12:29;101506.28;;;18.46;74.05
13934;BME280;7039;52.168;9.866;2022-07-12T08:14:55;101506.38;;;18.45;74.95
13934;BME280;7039;52.168;9.866;2022-07-12T08:17:23;101510.19;;;18.53;74.03
13934;BME280;7039;52.168;9.866;2022-07-12T08:19:50;101506.94;;;18.63;75.27
13934;BME280;7039;52.168;9.866;2022-07-12T08:22:16;101507.41;;;18.82;75.60
13934;BME280;7039;52.168;9.866;2022-07-12T08:24:43;101508.34;;;19.07;74.99
13934;BME280;7039;52.168;9.866;2022-07-12T08:27:09;101513.75;;;19.18;73.77
13934;BME280;7039;52.168;9.866;2022-07-12T08:29:36;101512.81;;;19.19;73.56
13934;BME280;7039;52.168;9.866;2022-07-12T08:32:03;101515.75;;;19.27;74.49
13934;BME280;7039;52.168;9.866;2022-07-12T08:34:32;101509.81;;;19.36;73.18
13934;BME280;7039;52.168;9.866;2022-07-12T08:36:58;101495.19;;;19.44;73.63
13934;BME280;7039;52.168;9.866;2022-07-12T08:39:25;101505.66;;;19.45;71.26
13934;BME280;7039;52.168;9.866;2022-07-12T08:41:51;101500.38;;;19.45;70.85
13934;BME280;7039;52.168;9.866;2022-07-12T08:44:18;101510.53;;;19.51;70.04
13934;BME280;7039;52.168;9.866;2022-07-12T08:46:44;101510.72;;;19.61;70.49
13934;BME280;7039;52.168;9.866;2022-07-12T08:49:12;101515.56;;;19.67;70.24
13934;BME280;7039;52.168;9.866;2022-07-12T08:51:40;101507.59;;;19.80;69.59
13934;BME280;7039;52.168;9.866;2022-07-12T08:54:09;101506.84;;;19.91;70.57
13934;BME280;7039;52.168;9.866;2022-07-12T08:56:38;101508.22;;;19.96;71.18
13934;BME280;7039;52.168;9.866;2022-07-12T08:59:12;101502.97;;;20.08;69.67
13934;BME280;7039;52.168;9.866;2022-07-12T09:01:41;101492.88;;;20.13;70.98
13934;BME280;7039;52.168;9.866;2022-07-12T09:04:15;101500.72;;;20.26;71.63
13934;BME280;7039;52.168;9.866;2022-07-12T09:06:43;101506.22;;;20.35;70.77
13934;BME280;7039;52.168;9.866;2022-07-12T09:09:10;101495.81;;;20.32;71.07
13934;BME280;7039;52.168;9.866;2022-07-12T09:11:37;101503.16;;;20.29;70.72
13934;BME280;7039;52.168;9.866;2022-07-12T09:14:05;101499.47;;;20.42;69.91
13934;BME280;7039;52.168;9.866;2022-07-12T09:16:32;101506.09;;;20.48;69.65
13934;BME280;7039;52.168;9.866;2022-07-12T09:19:12;101495.41;;;20.50;68.79
13934;BME280;7039;52.168;9.866;2022-07-12T09:21:46;101507.16;;;20.58;68.79
13934;BME280;7039;52.168;9.866;2022-07-12T09:24:14;101496.75;;;20.55;67.61
13934;BME280;7039;52.168;9.866;2022-07-12T09:26:40;101507.44;;;20.67;67.12
13934;BME280;7039;52.168;9.866;2022-07-12T09:29:08;101504.19;;;20.74;66.01
13934;BME280;7039;52.168;9.866;2022-07-12T09:31:39;101503.81;;;20.79;64.91
13934;BME280;7039;52.168;9.866;2022-07-12T09:34:27;101496.66;;;20.57;66.16
13934;BME280;7039;52.168;9.866;2022-07-12T09:37:12;101505.88;;;20.86;67.92
13934;BME280;7039;52.168;9.866;2022-07-12T09:39:39;101505.88;;;20.98;68.23
13934;BME280;7039;52.168;9.866;2022-07-12T09:42:08;101499.84;;;20.96;66.84
13934;BME280;7039;52.168;9.866;2022-07-12T09:44:35;101495.16;;;20.99;66.13
13934;BME280;7039;52.168;9.866;2022-07-12T09:47:03;101485.41;;;21.00;65.88
13934;BME280;7039;52.168;9.866;2022-07-12T09:49:30;101489.13;;;21.09;66.20
13934;BME280;7039;52.168;9.866;2022-07-12T09:51:56;101496.13;;;21.21;65.36
13934;BME280;7039;52.168;9.866;2022-07-12T09:54:26;101493.34;;;21.11;64.26
13934;BME280;7039;52.168;9.866;2022-07-12T09:56:57;101489.25;;;21.18;63.61
13934;BME280;7039;52.168;9.866;2022-07-12T09:59:27;101483.47;;;21.13;64.10
13934;BME280;7039;52.168;9.866;2022-07-12T10:01:56;101479.59;;;21.40;64.09
13934;BME280;7039;52.168;9.866;2022-07-12T10:04:29;101479.09;;;21.57;63.86
13934;BME280;7039;52.168;9.866;2022-07-12T10:06:56;101470.69;;;21.52;64.08
13934;BME280;7039;52.168;9.866;2022-07-12T10:09:25;101477.53;;;21.66;64.17
13934;BME280;7039;52.168;9.866;2022-07-12T10:11:53;101485.47;;;21.77;64.06
13934;BME280;7039;52.168;9.866;2022-07-12T10:14:20;101478.44;;;21.87;61.88
13934;BME280;7039;52.168;9.866;2022-07-12T10:16:50;101486.97;;;22.02;60.94
13934;BME280;7039;52.168;9.866;2022-07-12T10:19:28;101480.88;;;22.11;61.04
13934;BME280;7039;52.168;9.866;2022-07-12T10:21:56;101477.13;;;22.14;60.01
13934;BME280;7039;52.168;9.866;2022-07-12T10:24:50;101479.53;;;22.17;60.11
13934;BME280;7039;52.168;9.866;2022-07-12T10:27:29;101478.81;;;22.26;60.95
13934;BME280;7039;52.168;9.866;2022-07-12T10:30:13;101481.53;;;22.36;60.86
13934;BME280;7039;52.168;9.866;2022-07-12T10:32:42;101476.28;;;22.25;57.68
13934;BME280;7039;52.168;9.866;2022-07-12T10:35:12;101482.19;;;22.49;60.99
13934;BME280;7039;52.168;9.866;2022-07-12T10:37:39;101469.25;;;22.66;56.59
13934;BME280;7039;52.168;9.866;2022-07-12T10:40:13;101473.91;;;22.94;57.24
13934;BME280;7039;52.168;9.866;2022-07-12T10:42:40;101471.94;;;23.18;57.38
13934;BME280;7039;52.168;9.866;2022-07-12T10:45:12;101470.84;;;23.30;56.05
13934;BME280;7039;52.168;9.866;2022-07-12T10:47:54;101471.44;;;23.43;56.03
13934;BME280;7039;52.168;9.866;2022-07-12T10:53:26;101461.41;;;23.66;57.01
13934;BME280;7039;52.168;9.866;2022-07-12T10:56:13;101461.56;;;23.65;56.42
13934;BME280;7039;52.168;9.866;2022-07-12T10:58:42;101454.03;;;23.99;57.44
13934;BME280;7039;52.168;9.866;2022-07-12T11:01:10;101462.44;;;24.14;55.67
13934;BME280;7039;52.168;9.866;2022-07-12T11:03:39;101451.66;;;24.06;55.42
13934;BME280;7039;52.168;9.866;2022-07-12T11:06:08;101452.91;;;24.21;56.68
13934;BME280;7039;52.168;9.866;2022-07-12T11:08:52;101441.22;;;24.32;50.36
13934;BME280;7039;52.168;9.866;2022-07-12T11:11:21;101434.09;;;24.13;49.78
13934;BME280;7039;52.168;9.866;2022-07-12T11:13:48;101433.97;;;24.24;49.49
13934;BME280;7039;52.168;9.866;2022-07-12T11:16:14;101426.66;;;24.26;50.06
13934;BME280;7039;52.168;9.866;2022-07-12T11:18:42;101422.28;;;24.25;52.10
13934;BME280;7039;52.168;9.866;2022-07-12T11:21:08;101415.69;;;24.29;51.03
13934;BME280;7039;52.168;9.866;2022-07-12T11:23:35;101416.97;;;24.35;52.38
13934;BME280;7039;52.168;9.866;2022-07-12T11:26:02;101425.78;;;24.35;51.87
13934;BME280;7039;52.168;9.866;2022-07-12T11:28:32;101417.59;;;24.66;50.65
13934;BME280;7039;52.168;9.866;2022-07-12T11:31:03;101419.19;;;24.96;49.84
13934;BME280;7039;52.168;9.866;2022-07-12T11:33:31;101425.34;;;24.97;51.59
13934;BME280;7039;52.168;9.866;2022-07-12T11:36:00;101428.75;;;25.17;48.05
13934;BME280;7039;52.168;9.866;2022-07-12T11:38:27;101420.06;;;24.77;46.18
13934;BME280;7039;52.168;9.866;2022-07-12T11:40:55;101419.56;;;25.01;47.38
13934;BME280;7039;52.168;9.866;2022-07-12T11:43:22;101421.88;;;25.24;47.54
13934;BME280;7039;52.168;9.866;2022-07-12T11:45:51;101423.81;;;25.50;46.95
13934;BME280;7039;52.168;9.866;2022-07-12T11:48:18;101416.94;;;25.47;47.21
13934;BME280;7039;52.168;9.866;2022-07-12T11:50:45;101417.56;;;25.77;45.24
13934;BME280;7039;52.168;9.866;2022-07-12T11:53:15;101415.19;;;25.74;44.66
13934;BME280;7039;52.168;9.866;2022-07-12T11:55:44;101408.63;;;25.86;44.50
13934;BME280;7039;52.168;9.866;2022-07-12T11:58:11;101405.22;;;25.94;45.18
13934;BME280;7039;52.168;9.866;2022-07-12T12:00:38;101410.59;;;25.84;45.56
13934;BME280;7039;52.168;9.866;2022-07-12T12:03:06;101406.06;;;25.94;46.00
13934;BME280;7039;52.168;9.866;2022-07-12T12:05:33;101406.19;;;26.11;46.79
13934;BME280;7039;52.168;9.866;2022-07-12T12:08:00;101395.53;;;26.45;44.69
13934;BME280;7039;52.168;9.866;2022-07-12T12:10:27;101391.69;;;27.08;48.71
13934;BME280;7039;52.168;9.866;2022-07-12T12:12:55;101401.47;;;27.34;44.07
13934;BME280;7039;52.168;9.866;2022-07-12T12:15:23;101391.78;;;27.33;44.06
13934;BME280;7039;52.168;9.866;2022-07-12T12:17:53;101393.44;;;27.25;43.16
13934;BME280;7039;52.168;9.866;2022-07-12T12:20:22;101397.66;;;27.44;42.65
13934;BME280;7039;52.168;9.866;2022-07-12T12:22:50;101383.78;;;27.57;41.63
13934;BME280;7039;52.168;9.866;2022-07-12T12:25:16;101392.00;;;27.64;42.26
13934;BME280;7039;52.168;9.866;2022-07-12T12:27:45;101382.78;;;27.66;43.24
13934;BME280;7039;52.168;9.866;2022-07-12T12:30:12;101386.63;;;27.72;42.13
13934;BME280;7039;52.168;9.866;2022-07-12T12:32:46;101384.28;;;28.18;41.05
13934;BME280;7039;52.168;9.866;2022-07-12T12:35:14;101380.75;;;28.26;42.67
13934;BME280;7039;52.168;9.866;2022-07-12T12:37:48;101378.88;;;28.51;41.15
13934;BME280;7039;52.168;9.866;2022-07-12T12:40:18;101378.59;;;27.64;42.74
13934;BME280;7039;52.168;9.866;2022-07-12T12:42:44;101379.13;;;27.92;42.42
13934;BME280;7039;52.168;9.866;2022-07-12T12:45:17;101392.81;;;27.56;41.82
13934;BME280;7039;52.168;9.866;2022-07-12T12:47:54;101381.78;;;27.76;41.37
13934;BME280;7039;52.168;9.866;2022-07-12T12:50:43;101379.63;;;28.12;41.29
13934;BME280;7039;52.168;9.866;2022-07-12T12:53:13;101380.25;;;27.81;41.60
13934;BME280;7039;52.168;9.866;2022-07-12T12:55:40;101380.25;;;28.22;42.20
13934;BME280;7039;52.168;9.866;2022-07-12T12:58:07;101373.00;;;28.47;42.42
13934;BME280;7039;52.168;9.866;2022-07-12T13:00:36;101369.09;;;28.98;41.52
13934;BME280;7039;52.168;9.866;2022-07-12T13:03:04;101370.19;;;29.20;42.24
13934;BME280;7039;52.168;9.866;2022-07-12T13:05:31;101372.19;;;29.49;41.48
13934;BME280;7039;52.168;9.866;2022-07-12T13:07:57;101365.19;;;29.40;42.38